Time;durP1;ratioP1;P1;durP2;ratioP2;P2;SDS_P1;SDS_P2;PMS_P1;PMS_P2;Temp;Humidity;BMP_temperature;BMP_pressure;BME280_temperature;BME280_humidity;BME280_pressure;Samples;Min_cycle;Max_cycle;Signal;HPM_P1;HPM_P2
2021/09/07 00:00:27;;;;;;;4.68;3.38;;;19.70;99.90;;;19.56;85.30;101481.16;4185051;28;20029;-68
2021/09/07 00:02:28;;;;;;;6.53;3.63;;;19.70;99.90;;;19.58;85.74;101483.66;4184570;28;20032;-68
2021/09/07 00:04:29;;;;;;;4.50;3.65;;;19.70;99.90;;;19.55;85.10;101474.16;4184882;28;20025;-68
2021/09/07 00:06:30;;;;;;;6.53;4.00;;;19.70;99.90;;;19.59;85.24;101472.72;4185187;28;20029;-68
2021/09/07 00:08:31;;;;;;;6.47;4.00;;;19.70;99.90;;;19.54;85.29;101477.03;4185092;28;20025;-68
2021/09/07 00:10:32;;;;;;;5.40;4.03;;;19.70;99.90;;;19.49;85.24;101484.81;4184967;28;20066;-68
2021/09/07 00:12:34;;;;;;;5.20;3.72;;;19.60;99.90;;;19.55;84.22;101478.69;4185015;28;20059;-68
2021/09/07 00:14:35;;;;;;;3.92;3.28;;;19.60;99.90;;;19.54;84.47;101482.38;4184755;28;20040;-68
2021/09/07 00:16:36;;;;;;;5.00;4.00;;;19.60;99.90;;;19.47;84.52;101471.66;4184610;28;20041;-68
2021/09/07 00:18:37;;;;;;;3.65;3.13;;;19.60;99.90;;;19.50;84.91;101475.78;4184865;28;20025;-68
2021/09/07 00:20:38;;;;;;;6.30;3.58;;;19.60;99.90;;;19.46;85.22;101469.16;4184732;28;20029;-68
2021/09/07 00:22:39;;;;;;;5.07;3.45;;;19.60;99.90;;;19.43;85.55;101462.34;4185086;28;20369;-68
2021/09/07 00:24:40;;;;;;;6.47;3.38;;;19.60;99.90;;;19.38;85.77;101467.44;4184857;28;20107;-68
2021/09/07 00:26:41;;;;;;;4.00;3.50;;;19.50;99.90;;;19.32;86.13;101458.31;4184803;28;20551;-68
2021/09/07 00:28:42;;;;;;;4.82;3.65;;;19.50;99.90;;;19.33;86.33;101459.16;4166718;28;20488;-68
2021/09/07 00:30:43;;;;;;;6.32;4.10;;;19.40;99.90;;;19.27;86.45;101457.25;4184852;28;20041;-68
2021/09/07 00:32:43;;;;;;;5.68;4.03;;;19.40;99.90;;;19.43;83.30;101458.84;4184762;28;20032;-68
2021/09/07 00:34:44;;;;;;;4.63;3.60;;;19.40;99.90;;;19.36;83.75;101461.44;4184797;28;20396;-68
2021/09/07 00:36:45;;;;;;;5.65;3.85;;;19.40;99.90;;;19.39;84.48;101462.88;4184543;28;20085;-68
2021/09/07 00:38:46;;;;;;;5.57;3.75;;;19.40;99.90;;;19.26;84.61;101444.94;4184764;28;20033;-68
2021/09/07 00:40:47;;;;;;;3.90;3.20;;;19.40;99.90;;;19.27;84.96;101458.09;4184754;28;20440;-68
2021/09/07 00:42:48;;;;;;;8.13;3.78;;;19.40;99.90;;;19.23;85.08;101454.16;4184734;28;20500;-68
2021/09/07 00:44:49;;;;;;;6.38;4.25;;;19.40;99.90;;;19.26;84.66;101452.94;4184323;28;20071;-68
2021/09/07 00:47:02;;;;;;;7.47;4.05;;;19.40;99.90;;;19.29;85.04;101453.38;4184635;28;20025;-68
2021/09/07 00:49:03;;;;;;;3.97;3.50;;;19.40;99.90;;;19.33;84.90;101454.63;4184622;28;20057;-68
2021/09/07 00:51:04;;;;;;;8.88;3.90;;;19.40;99.90;;;19.22;86.12;101447.16;4184658;28;20059;-68
2021/09/07 00:53:05;;;;;;;4.90;3.80;;;19.30;99.90;;;19.20;85.95;101443.03;4184451;28;20029;-68
2021/09/07 00:55:09;;;;;;;4.40;3.33;;;19.30;99.90;;;19.10;86.26;101440.69;4184591;28;20029;-68
2021/09/07 00:57:09;;;;;;;4.80;3.90;;;19.30;99.90;;;19.07;86.78;101437.56;4184239;28;20025;-68
2021/09/07 00:59:11;;;;;;;4.47;3.67;;;19.20;99.90;;;19.02;87.02;101435.50;4184221;28;20259;-68
2021/09/07 01:01:12;;;;;;;6.38;3.40;;;19.10;99.90;;;18.98;87.36;101439.56;4166674;28;20026;-68
2021/09/07 01:03:13;;;;;;;7.35;4.10;;;19.10;99.90;;;19.00;86.99;101445.53;4184594;28;20021;-68
2021/09/07 01:05:14;;;;;;;4.25;3.85;;;19.10;99.90;;;18.94;87.09;101434.78;4184561;28;20036;-68
2021/09/07 01:07:17;;;;;;;7.57;4.50;;;19.00;99.90;;;18.81;87.22;101422.16;4184487;28;20033;-68
2021/09/07 01:09:18;;;;;;;4.32;3.80;;;19.00;99.90;;;18.79;87.24;101425.00;4150441;28;20030;-68
2021/09/07 01:11:19;;;;;;;4.75;3.60;;;19.00;99.90;;;18.84;87.18;101431.63;4166766;28;20520;-68
2021/09/07 01:13:20;;;;;;;4.95;3.72;;;18.90;99.90;;;18.85;86.94;101433.28;4184241;28;20037;-68
2021/09/07 01:15:21;;;;;;;5.25;4.10;;;18.90;99.90;;;18.90;86.63;101441.56;4185981;28;20102;-68
2021/09/07 01:17:22;;;;;;;4.57;4.15;;;18.90;99.90;;;18.84;87.01;101432.47;4187402;28;20033;-68
2021/09/07 01:19:26;;;;;;;4.32;3.83;;;18.90;99.90;;;18.82;87.28;101428.34;4187610;28;20033;-68
2021/09/07 01:21:27;;;;;;;5.38;3.92;;;18.90;99.90;;;18.77;87.55;101416.38;4187728;28;20108;-68
2021/09/07 01:23:28;;;;;;;5.32;3.97;;;18.90;99.90;;;18.79;87.62;101429.53;4187400;28;20029;-68
2021/09/07 01:25:29;;;;;;;5.90;3.35;;;18.90;99.90;;;18.82;87.24;101418.44;4187453;28;20094;-68
2021/09/07 01:27:30;;;;;;;5.43;3.40;;;18.80;99.90;;;18.72;87.60;101423.31;4187494;28;20033;-68
2021/09/07 01:29:35;;;;;;;4.30;3.50;;;18.80;99.90;;;18.66;88.24;101413.41;4187241;28;20029;-68
2021/09/07 01:31:36;;;;;;;6.07;3.65;;;18.70;99.90;;;18.57;88.33;101412.72;4187352;28;20036;-68
2021/09/07 01:33:38;;;;;;;4.97;3.83;;;18.70;99.90;;;18.53;88.71;101426.63;4169605;28;20108;-68
2021/09/07 01:35:40;;;;;;;4.93;3.50;;;18.70;99.90;;;18.43;88.97;101418.09;4169855;28;20432;-68
2021/09/07 01:37:42;;;;;;;4.55;3.67;;;18.60;99.90;;;18.36;89.44;101412.69;4187467;28;20021;-68
2021/09/07 01:39:43;;;;;;;5.72;3.58;;;18.50;99.90;;;18.29;89.87;101410.94;4187334;28;20021;-68
2021/09/07 01:41:45;;;;;;;4.78;3.97;;;18.40;99.90;;;18.15;90.09;101407.31;4187151;28;20077;-67
2021/09/07 01:43:50;;;;;;;5.63;4.22;;;18.40;99.90;;;18.14;90.08;101406.47;4187070;28;20033;-68
2021/09/07 01:45:53;;;;;;;6.07;3.83;;;18.30;99.90;;;18.10;90.57;101412.38;4187316;28;20505;-68
2021/09/07 01:47:54;;;;;;;5.20;4.70;;;18.20;99.90;;;18.09;90.41;101402.72;4187314;28;20029;-68
2021/09/07 01:49:55;;;;;;;6.63;4.53;;;18.20;99.90;;;18.10;90.46;101404.38;4187161;28;20028;-68
2021/09/07 01:51:56;;;;;;;5.65;4.25;;;18.20;99.90;;;18.04;91.00;101410.50;4187191;28;20056;-68
2021/09/07 01:53:57;;;;;;;5.00;3.50;;;18.10;99.90;;;17.94;91.35;101404.59;4187209;28;20087;-68
2021/09/07 01:55:58;;;;;;;5.18;4.00;;;18.10;99.90;;;17.89;91.83;101409.69;4187152;28;20502;-68
2021/09/07 01:57:59;;;;;;;4.68;4.28;;;18.10;99.90;;;17.83;91.96;101397.09;4186794;28;20025;-68
2021/09/07 02:00:00;;;;;;;5.20;3.90;;;18.00;99.90;;;17.81;92.20;101391.94;4186949;28;20472;-68
2021/09/07 02:02:02;;;;;;;6.47;4.85;;;18.00;99.90;;;17.82;92.25;101403.44;4186971;28;20024;-68
2021/09/07 02:04:03;;;;;;;5.93;4.57;;;17.90;99.90;;;17.65;92.55;101379.63;4186948;28;20025;-68
2021/09/07 02:06:04;;;;;;;4.80;4.28;;;17.90;99.90;;;17.68;92.67;101381.13;4186803;28;20021;-68
2021/09/07 02:08:05;;;;;;;5.10;4.20;;;17.90;99.90;;;17.70;92.84;101392.41;4186904;28;20067;-68
2021/09/07 02:10:07;;;;;;;5.55;4.93;;;17.80;99.90;;;17.63;92.89;101384.31;4187006;28;20479;-68
2021/09/07 02:12:08;;;;;;;8.05;4.32;;;17.80;99.90;;;17.71;92.83;101390.59;4179985;28;20029;-68
2021/09/07 02:14:09;;;;;;;5.93;4.55;;;17.80;99.90;;;17.82;91.47;101388.25;4186514;28;20025;-68
2021/09/07 02:16:10;;;;;;;7.07;4.28;;;17.80;99.90;;;17.77;92.03;101376.50;4186553;28;20477;-68
2021/09/07 02:18:11;;;;;;;4.78;4.35;;;17.80;99.90;;;17.75;92.56;101379.34;4186833;28;20025;-68
2021/09/07 02:20:13;;;;;;;6.70;4.78;;;17.80;99.90;;;17.67;92.93;101379.44;4186691;28;20056;-68
2021/09/07 02:22:14;;;;;;;4.93;4.28;;;17.80;99.90;;;17.61;93.08;101358.84;4186487;28;20436;-68
2021/09/07 02:24:15;;;;;;;5.03;4.50;;;17.70;99.90;;;17.60;93.50;101379.34;4169044;28;20021;-67
2021/09/07 02:26:16;;;;;;;7.07;4.22;;;17.70;99.90;;;17.64;93.30;101377.97;4186050;28;20033;-68
2021/09/07 02:28:17;;;;;;;6.65;4.15;;;17.70;99.90;;;17.59;93.03;101372.34;4186209;28;20025;-67
2021/09/07 02:30:18;;;;;;;6.60;4.88;;;17.80;99.90;;;17.65;92.60;101376.16;4168593;28;20048;-67
2021/09/07 02:32:19;;;;;;;4.82;4.10;;;17.80;99.90;;;17.66;92.70;101383.94;4156276;28;20077;-68
2021/09/07 02:34:20;;;;;;;5.57;4.88;;;17.70;99.90;;;17.66;92.36;101383.94;4186511;28;20017;-68
2021/09/07 02:36:23;;;;;;;7.20;5.43;;;17.80;99.90;;;17.69;92.27;101372.91;4186540;28;20017;-68
2021/09/07 02:38:24;;;;;;;6.05;4.82;;;17.80;99.90;;;17.80;91.59;101379.59;4186327;28;20021;-68
2021/09/07 02:40:26;;;;;;;5.72;4.78;;;17.80;99.90;;;17.80;91.45;101376.91;4186410;28;20033;-68
2021/09/07 02:42:27;;;;;;;6.68;4.80;;;17.90;99.90;;;17.86;91.20;101373.50;4186369;28;20064;-68
2021/09/07 02:44:27;;;;;;;4.75;4.32;;;17.90;99.90;;;17.88;91.11;101370.66;4186054;28;20025;-68
2021/09/07 02:46:30;;;;;;;5.72;4.60;;;17.90;99.90;;;18.00;89.73;101363.81;4186155;28;20488;-67
2021/09/07 02:48:31;;;;;;;4.90;4.40;;;18.00;99.90;;;18.21;86.65;101366.50;4186306;28;20086;-68
2021/09/07 02:50:32;;;;;;;5.43;4.15;;;18.00;99.90;;;18.29;85.36;101358.34;4186223;28;20032;-68
2021/09/07 02:52:33;;;;;;;6.55;4.57;;;18.20;99.90;;;18.25;85.80;101363.25;4186228;28;20404;-68
2021/09/07 02:54:34;;;;;;;5.13;4.15;;;18.20;99.90;;;18.22;86.24;101358.28;4186205;28;20021;-68
2021/09/07 02:56:35;;;;;;;5.03;4.47;;;18.30;99.90;;;18.27;85.85;101368.41;4185878;28;20033;-68
2021/09/07 02:58:35;;;;;;;5.88;5.07;;;18.30;99.90;;;18.28;85.73;101358.56;4185887;28;20029;-68
2021/09/07 03:00:37;;;;;;;6.22;4.32;;;18.30;99.90;;;18.23;86.26;101359.94;4186177;28;20032;-68
2021/09/07 03:02:38;;;;;;;6.40;3.55;;;18.30;99.90;;;18.18;86.42;101345.53;4185996;28;20369;-68
2021/09/07 03:04:38;;;;;;;5.85;4.32;;;18.30;99.90;;;18.17;86.86;101354.53;4168300;28;20116;-68
2021/09/07 03:06:39;;;;;;;8.18;4.40;;;18.30;99.90;;;18.22;86.40;101346.78;4185955;28;20029;-68
2021/09/07 03:08:40;;;;;;;7.93;4.43;;;18.20;99.90;;;18.34;84.25;101342.56;4185922;28;20079;-67
2021/09/07 03:10:41;;;;;;;6.10;4.13;;;18.30;99.90;;;18.31;84.13;101334.94;4168198;28;20018;-68
2021/09/07 03:12:42;;;;;;;5.70;3.95;;;18.30;99.90;;;18.33;84.33;101348.13;4185710;28;20037;-68
2021/09/07 03:14:43;;;;;;;4.97;4.45;;;18.40;99.90;;;18.24;85.11;101336.75;4185473;28;20068;-68
2021/09/07 03:16:44;;;;;;;5.53;4.57;;;18.30;99.90;;;18.43;83.57;101346.75;4185678;28;20033;-68
2021/09/07 03:18:45;;;;;;;6.10;4.80;;;18.40;99.90;;;18.36;83.90;101351.25;4185725;28;20036;-68
2021/09/07 03:20:46;;;;;;;6.10;5.05;;;18.40;99.90;;;18.30;84.26;101337.81;4185621;28;20048;-68
2021/09/07 03:22:47;;;;;;;5.00;4.50;;;18.40;99.90;;;18.26;84.71;101337.38;4167947;28;20056;-67
2021/09/07 03:24:48;;;;;;;5.10;4.25;;;18.40;99.90;;;18.21;85.12;101337.97;4185694;28;20029;-68
2021/09/07 03:26:48;;;;;;;6.03;4.57;;;18.30;99.90;;;18.25;83.92;101333.88;4185612;28;20025;-67
2021/09/07 03:28:49;;;;;;;5.88;4.75;;;18.30;99.90;;;18.18;84.26;101325.00;4185176;28;20039;-68
2021/09/07 03:30:51;;;;;;;5.65;4.18;;;18.30;99.90;;;18.24;83.92;101332.22;4185779;28;20029;-68
2021/09/07 03:32:52;;;;;;;5.43;4.15;;;18.30;99.90;;;18.17;84.65;101327.84;4185599;28;20476;-68
2021/09/07 03:34:53;;;;;;;4.47;4.05;;;18.30;99.90;;;18.11;85.30;101336.59;4185481;28;20057;-68
2021/09/07 03:36:54;;;;;;;4.43;3.80;;;18.20;99.90;;;18.00;85.56;101321.94;4184902;28;20396;-68
2021/09/07 03:38:55;;;;;;;5.30;4.07;;;18.10;99.90;;;18.06;85.68;101320.34;4167298;28;20069;-68
2021/09/07 03:40:56;;;;;;;5.43;4.30;;;18.10;99.90;;;18.04;85.54;101322.38;4185602;28;20029;-68
2021/09/07 03:42:57;;;;;;;4.95;4.45;;;18.10;99.90;;;18.00;85.87;101313.91;4185135;28;20021;-68
2021/09/07 03:44:58;;;;;;;6.00;4.22;;;18.10;99.90;;;18.04;85.26;101320.50;4185262;28;20575;-68
2021/09/07 03:46:59;;;;;;;6.28;4.55;;;18.10;99.90;;;17.99;85.74;101314.09;4185448;28;20028;-68
2021/09/07 03:49:01;;;;;;;6.15;3.78;;;18.10;99.90;;;17.92;86.19;101318.56;4178036;28;20061;-68
2021/09/07 03:51:01;;;;;;;6.00;4.43;;;18.10;99.90;;;17.81;86.86;101308.34;4168790;28;20025;-68
2021/09/07 03:53:03;;;;;;;7.45;4.18;;;18.00;99.90;;;17.83;86.53;101314.34;4168624;28;20048;-68
2021/09/07 03:55:05;;;;;;;6.65;4.68;;;17.90;99.90;;;17.76;86.97;101313.44;4167528;28;20025;-68
2021/09/07 03:57:06;;;;;;;6.68;4.95;;;17.90;99.90;;;17.72;86.76;101321.00;4166393;28;20033;-67
2021/09/07 03:59:07;;;;;;;5.30;4.65;;;17.90;99.90;;;17.93;84.00;101310.34;4184865;28;20488;-68
2021/09/07 04:01:09;;;;;;;5.78;4.80;;;17.90;99.90;;;17.87;84.60;101304.94;4167497;28;20037;-68
2021/09/07 04:03:19;;;;;;;4.80;4.13;;;17.90;99.90;;;17.78;85.61;101317.56;4185127;28;20029;-68
2021/09/07 04:05:20;;;;;;;5.65;4.13;;;17.80;99.90;;;17.72;86.54;101317.50;4185096;28;20025;-68
2021/09/07 04:07:21;;;;;;;5.63;5.00;;;17.80;99.90;;;17.70;86.80;101315.03;4185092;28;20021;-68
2021/09/07 04:09:22;;;;;;;4.72;4.20;;;17.80;99.90;;;17.73;86.31;101319.16;4184927;28;20116;-68
2021/09/07 04:11:23;;;;;;;5.55;5.05;;;17.80;99.90;;;17.72;86.35;101304.16;4167185;28;20161;-67
2021/09/07 04:13:24;;;;;;;6.65;4.40;;;17.70;99.90;;;17.63;86.73;101295.44;4184836;28;20040;-68
2021/09/07 04:15:25;;;;;;;5.28;4.57;;;17.70;99.90;;;17.72;86.16;101302.31;4167346;28;20048;-68
2021/09/07 04:17:25;;;;;;;5.85;4.50;;;17.70;99.90;;;17.68;86.64;101307.19;4168288;28;20464;-68
2021/09/07 04:19:26;;;;;;;6.70;4.53;;;17.80;99.90;;;17.83;84.46;101304.47;4168491;28;20061;-68
2021/09/07 04:21:27;;;;;;;7.20;4.55;;;17.80;99.90;;;17.85;84.47;101298.97;4168408;28;20025;-68
2021/09/07 04:23:28;;;;;;;6.05;4.75;;;17.80;99.90;;;17.96;82.09;101298.47;4168426;28;20108;-67
2021/09/07 04:25:29;;;;;;;6.47;5.05;;;17.90;99.90;;;18.01;81.67;101298.75;4168239;28;20030;-68
2021/09/07 04:27:30;;;;;;;5.03;4.13;;;17.90;99.90;;;18.00;81.77;101305.09;4168033;28;20079;-68
2021/09/07 04:29:31;;;;;;;5.22;3.97;;;18.00;99.90;;;18.00;81.79;101310.41;4168176;28;20030;-68
2021/09/07 04:31:32;;;;;;;6.05;4.20;;;18.00;99.90;;;18.02;81.44;101303.03;4168299;28;20056;-68
2021/09/07 04:33:33;;;;;;;7.53;4.90;;;18.00;99.90;;;18.14;80.65;101298.84;4168310;28;20559;-68
2021/09/07 04:35:34;;;;;;;6.78;4.53;;;18.10;99.90;;;18.06;81.74;101297.13;4168389;28;20029;-68
2021/09/07 04:37:35;;;;;;;6.45;4.43;;;18.10;99.90;;;18.10;80.48;101300.22;4183584;28;20036;-68
2021/09/07 04:39:36;;;;;;;4.75;4.20;;;18.10;99.90;;;17.96;81.70;101298.47;4168252;28;20021;-68
2021/09/07 04:41:37;;;;;;;5.40;4.05;;;18.00;99.90;;;18.03;81.15;101294.84;4168243;28;20026;-67
2021/09/07 04:43:38;;;;;;;6.93;4.35;;;18.10;99.90;;;18.07;80.78;101296.09;4183167;28;20110;-68
2021/09/07 04:45:39;;;;;;;5.88;4.80;;;18.10;99.90;;;18.01;80.82;101291.53;4168335;28;20025;-68
2021/09/07 04:47:40;;;;;;;8.10;4.82;;;18.10;99.90;;;17.99;80.85;101287.41;4184389;28;20037;-70
2021/09/07 04:49:41;;;;;;;5.25;4.43;;;18.10;99.90;;;18.10;80.08;101298.38;4142662;28;20068;-68
2021/09/07 04:51:42;;;;;;;7.15;4.75;;;18.10;99.90;;;18.07;79.94;101300.66;4170985;28;20507;-68
2021/09/07 04:53:43;;;;;;;6.53;4.40;;;18.10;99.90;;;18.13;79.85;101305.19;4172596;28;20136;-68
2021/09/07 04:55:44;;;;;;;10.95;4.88;;;18.10;99.90;;;18.10;80.05;101303.72;4172475;28;20104;-68
2021/09/07 04:57:45;;;;;;;5.25;4.15;;;18.10;99.90;;;17.98;80.84;101296.44;4172710;28;20026;-68
2021/09/07 04:59:46;;;;;;;5.47;4.13;;;18.10;99.90;;;17.95;80.78;101296.81;4172023;28;20030;-68
2021/09/07 05:01:47;;;;;;;4.30;3.75;;;18.10;99.90;;;17.89;81.56;101297.59;4172057;28;20160;-68
2021/09/07 05:03:48;;;;;;;4.13;3.70;;;18.00;99.90;;;17.82;82.10;101288.69;4172807;28;20026;-68
2021/09/07 05:05:50;;;;;;;4.38;3.90;;;18.00;99.90;;;17.80;82.43;101290.72;4172741;28;20033;-68
2021/09/07 05:07:51;;;;;;;9.45;4.70;;;17.90;99.90;;;17.78;82.36;101295.41;4172678;28;20034;-68
2021/09/07 05:09:54;;;;;;;6.07;4.78;;;17.90;99.90;;;17.88;81.02;101291.41;4172539;28;20501;-68
2021/09/07 05:11:55;;;;;;;6.95;3.92;;;17.80;99.90;;;17.93;80.83;101296.16;4172551;28;20049;-67
2021/09/07 05:13:57;;;;;;;4.72;4.05;;;17.90;99.90;;;17.93;81.23;101294.34;4172158;28;20033;-68
2021/09/07 05:15:58;;;;;;;5.63;4.70;;;17.90;99.90;;;17.78;81.54;101282.06;4170848;28;20049;-68
2021/09/07 05:17:59;;;;;;;6.28;4.60;;;17.90;99.90;;;17.80;81.09;101285.38;4172458;28;20033;-68
2021/09/07 05:20:01;;;;;;;6.50;4.40;;;17.90;99.90;;;17.81;81.09;101273.66;4172372;28;20139;-68
2021/09/07 05:22:02;;;;;;;4.90;4.40;;;17.80;99.90;;;17.96;80.43;101282.44;4187914;28;20029;-68
2021/09/07 05:24:04;;;;;;;5.07;4.40;;;17.80;99.90;;;17.81;81.00;101265.66;4157721;28;20087;-68
2021/09/07 05:26:06;;;;;;;8.60;5.45;;;17.90;99.90;;;17.81;80.75;101260.31;4155760;28;20112;-68
2021/09/07 05:28:07;;;;;;;9.20;4.43;;;17.90;99.90;;;17.85;81.21;101267.78;4164127;28;20033;-68
2021/09/07 05:30:11;;;;;;;6.10;4.97;;;17.90;99.90;;;17.93;80.92;101272.16;4172328;28;20065;-68
2021/09/07 05:32:12;;;;;;;7.20;4.78;;;17.90;99.90;;;17.83;81.16;101275.13;4171850;28;20081;-68
2021/09/07 05:34:13;;;;;;;6.32;4.43;;;17.90;99.90;;;17.84;80.26;101260.78;4171959;28;20037;-68
2021/09/07 05:36:14;;;;;;;8.63;4.03;;;17.90;99.90;;;17.88;80.08;101264.72;4172019;28;20036;-68
2021/09/07 05:38:15;;;;;;;6.20;4.80;;;17.90;99.90;;;17.85;80.14;101270.44;4172143;28;20049;-68
2021/09/07 05:40:16;;;;;;;7.13;4.60;;;17.90;99.90;;;17.97;79.94;101274.25;4187139;28;20029;-68
2021/09/07 05:42:17;;;;;;;7.55;5.45;;;17.90;99.90;;;17.89;79.46;101263.69;4171938;28;20033;-68
2021/09/07 05:44:19;;;;;;;6.38;4.50;;;17.90;99.90;;;17.93;79.42;101261.47;4171562;28;20021;-68
2021/09/07 05:46:20;;;;;;;6.13;4.15;;;17.90;99.90;;;17.98;79.02;101264.41;4171701;28;20514;-68
2021/09/07 05:48:21;;;;;;;4.97;4.10;;;18.00;99.90;;;17.97;79.33;101255.56;4171432;28;20021;-68
2021/09/07 05:50:23;;;;;;;7.40;4.20;;;18.00;99.90;;;17.92;79.03;101249.16;4171876;28;20104;-68
2021/09/07 05:52:23;;;;;;;8.15;4.40;;;18.00;99.90;;;17.83;79.84;101258.31;4170891;28;20096;-68
2021/09/07 05:54:24;;;;;;;6.53;4.43;;;18.00;99.90;;;17.91;79.14;101245.66;4158739;28;20374;-68
2021/09/07 05:56:25;;;;;;;6.68;4.35;;;18.00;99.90;;;17.97;79.16;101260.06;4162806;28;20112;-68
2021/09/07 05:58:26;;;;;;;6.20;4.65;;;18.00;99.90;;;17.99;79.12;101256.19;4170580;28;20085;-68
2021/09/07 06:00:27;;;;;;;6.57;4.22;;;18.00;99.90;;;17.99;78.65;101266.03;4169596;28;20022;-68
2021/09/07 06:02:29;;;;;;;6.13;3.90;;;18.10;99.90;;;17.74;79.46;101238.09;4170379;28;20061;-68
2021/09/07 06:04:30;;;;;;;8.80;5.22;;;18.00;99.90;;;17.98;78.73;101259.06;4170371;28;20018;-68
2021/09/07 06:06:32;;;;;;;5.85;4.18;;;18.00;99.90;;;18.03;78.04;101270.00;4170422;28;20029;-68
2021/09/07 06:08:33;;;;;;;7.57;5.22;;;18.00;99.90;;;17.98;78.66;101262.53;4170317;28;20025;-68
2021/09/07 06:10:34;;;;;;;7.70;4.43;;;18.10;99.90;;;17.95;79.45;101264.78;4170420;28;20396;-68
2021/09/07 06:12:35;;;;;;;8.00;4.93;;;18.00;99.90;;;17.92;79.22;101262.50;4170316;28;20022;-68
2021/09/07 06:14:36;;;;;;;7.75;4.70;;;18.10;99.90;;;17.80;80.26;101248.81;4185300;28;20060;-68
2021/09/07 06:16:36;;;;;;;7.00;4.07;;;18.00;99.90;;;17.91;78.72;101259.00;4168576;28;20042;-68
2021/09/07 06:18:38;;;;;;;9.45;4.43;;;18.00;99.90;;;17.93;78.79;101261.47;4169887;28;20048;-68
2021/09/07 06:20:39;;;;;;;11.77;5.30;;;18.10;99.90;;;18.02;77.85;101254.97;4185276;28;20104;-68
2021/09/07 06:22:40;;;;;;;7.55;4.40;;;18.10;99.90;;;18.03;78.95;101272.66;4168993;28;20377;-68
2021/09/07 06:24:41;;;;;;;8.30;4.30;;;18.10;99.90;;;17.86;80.49;101263.28;4170052;28;20075;-69
2021/09/07 06:26:43;;;;;;;7.57;4.32;;;18.10;99.90;;;17.89;80.27;101268.22;4185367;28;20060;-68
2021/09/07 06:28:45;;;;;;;5.70;4.35;;;18.10;99.90;;;17.67;80.96;101246.03;4168421;28;20030;-68
2021/09/07 06:30:46;;;;;;;6.57;4.78;;;18.00;99.90;;;17.77;81.67;101269.75;4170227;28;20029;-68
2021/09/07 06:32:47;;;;;;;8.13;4.47;;;18.10;99.90;;;17.72;81.91;101266.81;4185312;28;20032;-68
2021/09/07 06:34:48;;;;;;;13.35;5.13;;;18.00;99.90;;;17.85;81.53;101275.78;4169980;28;20400;-68
2021/09/07 06:36:48;;;;;;;14.05;5.70;;;18.00;99.90;;;17.75;82.07;101261.91;4169646;28;20113;-68
2021/09/07 06:38:49;;;;;;;7.30;4.30;;;18.00;99.90;;;17.78;82.76;101279.38;4169973;28;20053;-68
2021/09/07 06:40:50;;;;;;;10.77;4.43;;;18.00;99.90;;;17.83;81.61;101269.78;4169889;28;20026;-69
2021/09/07 06:42:51;;;;;;;8.38;4.78;;;18.00;99.90;;;17.93;80.84;101266.81;4169527;28;20033;-68
2021/09/07 06:44:52;;;;;;;6.53;4.18;;;18.10;99.90;;;18.02;80.18;101271.00;4169684;28;20021;-68
2021/09/07 06:46:53;;;;;;;10.77;5.50;;;18.20;99.90;;;18.12;79.34;101269.69;4169861;28;20080;-68
2021/09/07 06:48:54;;;;;;;11.80;5.28;;;18.20;99.90;;;18.13;78.94;101262.47;4169677;28;20508;-68
2021/09/07 06:50:55;;;;;;;7.93;4.00;;;18.30;99.90;;;18.11;79.76;101261.84;4184999;28;20037;-68
2021/09/07 06:52:56;;;;;;;9.48;4.50;;;18.30;99.90;;;18.15;80.20;101263.13;4169433;28;20494;-68
2021/09/07 06:54:57;;;;;;;10.55;4.43;;;18.40;99.90;;;18.23;80.23;101265.66;4169756;28;20064;-69
2021/09/07 06:56:58;;;;;;;7.05;4.47;;;18.40;99.90;;;18.38;78.45;101269.06;4184769;28;20147;-68
2021/09/07 06:58:59;;;;;;;9.40;4.65;;;18.50;99.90;;;18.25;79.61;101255.59;4169235;28;20033;-68
2021/09/07 07:01:00;;;;;;;25.55;5.47;;;18.50;99.90;;;18.30;80.62;101277.22;4169556;28;20018;-68
2021/09/07 07:03:00;;;;;;;6.15;4.07;;;18.60;99.90;;;18.29;80.42;101261.38;4169588;28;20041;-69
2021/09/07 07:05:01;;;;;;;6.78;4.55;;;18.60;99.90;;;18.26;80.83;101251.91;4184752;28;20492;-68
2021/09/07 07:07:03;;;;;;;5.97;3.95;;;18.60;99.90;;;18.45;81.11;101272.63;4169370;28;20029;-68
2021/09/07 07:09:03;;;;;;;4.22;3.35;;;18.70;99.90;;;18.48;81.60;101274.91;4169305;28;20108;-68
2021/09/07 07:11:04;;;;;;;6.50;3.88;;;18.70;99.90;;;18.51;82.14;101279.88;4169255;28;20405;-68
2021/09/07 07:13:05;;;;;;;6.05;4.30;;;18.80;99.90;;;18.65;80.87;101275.44;4169128;28;20057;-68
2021/09/07 07:15:07;;;;;;;10.13;3.95;;;18.90;99.90;;;18.62;81.43;101260.63;4172553;28;20087;-69
2021/09/07 07:17:08;;;;;;;7.93;4.75;;;18.90;99.90;;;18.65;81.90;101272.78;4185525;28;20025;-68
2021/09/07 07:19:09;;;;;;;8.90;4.93;;;18.90;99.90;;;18.66;82.13;101263.75;4185614;28;20033;-68
2021/09/07 07:21:10;;;;;;;7.88;3.90;;;19.00;99.90;;;18.65;82.49;101256.72;4185652;28;20039;-68
2021/09/07 07:23:11;;;;;;;6.72;4.25;;;19.10;99.90;;;18.82;81.80;101268.75;4168026;28;20018;-68
2021/09/07 07:25:12;;;;;;;4.72;3.92;;;19.10;99.90;;;18.89;80.42;101261.59;4185712;28;20032;-68
2021/09/07 07:27:13;;;;;;;4.80;3.47;;;19.20;99.90;;;18.95;79.83;101250.13;4167715;28;20025;-68
2021/09/07 07:29:15;;;;;;;5.05;3.95;;;19.30;99.90;;;19.02;80.28;101255.50;4185400;28;20400;-68
2021/09/07 07:31:16;;;;;;;7.47;4.10;;;19.30;99.90;;;19.04;80.28;101250.78;4185441;28;20058;-68
2021/09/07 07:33:17;;;;;;;6.07;4.32;;;19.40;99.90;;;19.13;80.50;101249.59;4185493;28;20033;-68
2021/09/07 07:35:18;;;;;;;6.88;5.13;;;19.50;99.90;;;19.15;80.25;101234.16;4185422;28;20056;-68
2021/09/07 07:37:19;;;;;;;7.75;4.57;;;19.60;99.90;;;19.38;76.77;101234.66;4167956;28;20039;-68
2021/09/07 07:39:21;;;;;;;9.02;5.22;;;19.60;99.90;;;19.46;77.04;101237.19;4185602;28;20029;-68
2021/09/07 07:41:22;;;;;;;8.13;4.75;;;19.70;99.90;;;19.53;77.12;101234.53;4185364;28;20025;-68
2021/09/07 07:43:25;;;;;;;13.65;5.38;;;19.90;99.90;;;19.61;77.29;101229.81;4185000;28;20032;-68
2021/09/07 07:45:26;;;;;;;8.13;4.50;;;19.90;99.90;;;19.67;75.70;101233.53;4185545;28;20036;-68
2021/09/07 07:47:27;;;;;;;6.78;4.53;;;20.00;99.90;;;19.77;75.48;101232.09;4185372;28;20053;-68
2021/09/07 07:49:28;;;;;;;8.45;5.15;;;20.20;99.90;;;19.87;75.45;101242.41;4185254;28;20033;-68
2021/09/07 07:51:29;;;;;;;6.85;4.03;;;20.30;99.90;;;19.86;74.52;101232.75;4185214;28;20523;-68
2021/09/07 07:53:30;;;;;;;4.90;4.40;;;20.40;99.90;;;20.01;75.66;101243.25;4185312;28;20033;-68
2021/09/07 07:55:31;;;;;;;6.10;4.40;;;20.40;99.90;;;20.10;75.05;101239.34;4185203;28;20032;-68
2021/09/07 07:57:32;;;;;;;5.15;3.53;;;20.50;99.90;;;20.13;74.28;101236.25;4185114;28;20394;-68
2021/09/07 07:59:33;;;;;;;4.32;3.75;;;20.60;99.90;;;20.18;75.06;101239.13;4184795;28;20516;-68
2021/09/07 08:01:34;;;;;;;6.88;4.18;;;20.70;99.90;;;20.29;75.01;101247.41;4185109;28;20029;-68
2021/09/07 08:03:35;;;;;;;6.55;4.00;;;20.70;99.90;;;20.25;76.45;101239.97;4185044;28;20017;-68
2021/09/07 08:05:36;;;;;;;5.78;4.07;;;20.80;99.90;;;20.25;77.06;101245.31;4185124;28;20028;-68
2021/09/07 08:07:37;;;;;;;5.80;4.32;;;20.80;99.90;;;20.33;75.63;101245.13;4185047;28;20021;-69
2021/09/07 08:09:38;;;;;;;4.70;3.72;;;20.80;99.90;;;20.29;76.58;101243.88;4185000;28;20509;-68
2021/09/07 08:11:39;;;;;;;10.32;4.50;;;20.90;99.90;;;20.34;77.23;101246.75;4184862;28;20393;-68
2021/09/07 08:13:40;;;;;;;5.20;3.83;;;20.90;99.90;;;20.45;77.44;101253.38;4184537;28;20028;-68
2021/09/07 08:15:41;;;;;;;7.88;3.90;;;20.90;99.90;;;20.45;75.81;101227.38;4184739;28;20408;-68
2021/09/07 08:17:42;;;;;;;6.25;3.55;;;21.00;99.90;;;20.61;76.95;101245.69;4184782;28;20043;-68
2021/09/07 08:19:43;;;;;;;8.02;4.30;;;21.20;99.90;;;20.71;77.33;101239.91;4184880;28;20021;-68
2021/09/07 08:21:44;;;;;;;7.22;4.05;;;21.20;99.90;;;20.73;77.97;101241.34;4184862;28;20032;-69
2021/09/07 08:23:45;;;;;;;7.90;3.70;;;21.40;99.90;;;20.86;72.50;101235.94;4184344;28;20021;-68